Time;durP1;ratioP1;P1;durP2;ratioP2;P2;SDS_P1;SDS_P2;PMS_P1;PMS_P2;Temp;Humidity;BMP_temperature;BMP_pressure;BME280_temperature;BME280_humidity;BME280_pressure;Samples;Min_cycle;Max_cycle;Signal;HPM_P1;HPM_P2
2023/05/31 00:00:28;;;;;;;5.97;1.60;;;15.40;99.90;;;;;;5052905;28;20033;-81
2023/05/31 00:02:54;;;;;;;5.25;1.88;;;15.30;99.90;;;;;;5051867;28;20032;-83
2023/05/31 00:05:20;;;;;;;6.55;1.70;;;15.20;99.90;;;;;;5049161;28;20059;-79
2023/05/31 00:07:46;;;;;;;7.20;1.90;;;15.40;99.90;;;;;;5059577;28;20386;-80
2023/05/31 00:10:13;;;;;;;2.78;1.20;;;15.90;99.90;;;;;;5067544;28;20113;-83
2023/05/31 00:12:39;;;;;;;5.82;2.33;;;16.20;99.90;;;;;;5043306;28;20051;-80
2023/05/31 00:15:05;;;;;;;8.63;1.85;;;16.00;99.90;;;;;;5044329;28;20044;-77
2023/05/31 00:17:32;;;;;;;6.60;1.70;;;15.80;99.90;;;;;;5044309;28;20032;-79
2023/05/31 00:19:58;;;;;;;6.68;2.13;;;16.00;99.90;;;;;;5049185;28;20462;-80
2023/05/31 00:22:24;;;;;;;5.13;1.60;;;16.00;99.90;;;;;;5051894;28;20063;-81
2023/05/31 00:24:50;;;;;;;5.55;1.52;;;16.00;99.90;;;;;;5051917;28;20039;-82
2023/05/31 00:27:16;;;;;;;5.20;1.65;;;16.10;99.90;;;;;;5047671;28;20033;-79
2023/05/31 00:29:44;;;;;;;6.68;1.55;;;16.10;99.90;;;;;;5043469;28;20049;-80
2023/05/31 00:32:10;;;;;;;6.57;1.33;;;16.00;99.90;;;;;;5064276;28;20033;-80
2023/05/31 00:34:37;;;;;;;5.18;1.90;;;15.90;99.90;;;;;;5061395;28;20037;-81
2023/05/31 00:37:03;;;;;;;3.20;1.40;;;15.80;99.90;;;;;;5042454;28;20037;-80
2023/05/31 00:39:30;;;;;;;4.32;1.05;;;15.80;99.90;;;;;;5035242;28;20044;-80
2023/05/31 00:41:57;;;;;;;4.70;1.52;;;15.90;99.90;;;;;;5060424;28;20044;-83
2023/05/31 00:44:23;;;;;;;2.33;1.00;;;16.00;99.90;;;;;;5050700;28;20481;-78
2023/05/31 00:46:50;;;;;;;2.55;1.13;;;16.10;99.90;;;;;;5052051;28;20041;-80
2023/05/31 00:49:17;;;;;;;5.65;1.42;;;16.10;99.90;;;;;;5031419;28;20045;-81
2023/05/31 00:51:44;;;;;;;3.63;1.15;;;16.10;99.90;;;;;;5051320;28;20060;-79
2023/05/31 00:54:10;;;;;;;4.05;1.60;;;16.00;99.90;;;;;;5027263;28;20045;-80
2023/05/31 00:56:37;;;;;;;5.65;2.28;;;16.00;99.90;;;;;;5051945;28;20469;-80
2023/05/31 00:59:04;;;;;;;6.20;2.30;;;15.90;99.90;;;;;;5045096;28;20037;-80
2023/05/31 01:01:33;;;;;;;3.72;1.17;;;15.80;99.90;;;;;;5051964;28;20045;-80
2023/05/31 01:03:59;;;;;;;8.35;2.33;;;15.90;99.90;;;;;;5045466;28;20045;-85
2023/05/31 01:06:31;;;;;;;3.97;1.13;;;16.00;99.90;;;;;;5045925;28;20037;-80
2023/05/31 01:09:07;;;;;;;4.47;1.33;;;15.70;99.90;;;;;;5055569;28;20037;-85
2023/05/31 01:11:56;;;;;;;4.18;1.38;;;15.30;99.90;;;;;;5052220;28;20045;-80
2023/05/31 01:15:00;;;;;;;6.28;2.30;;;14.90;99.90;;;;;;5031943;28;20052;-81
2023/05/31 01:17:44;;;;;;;4.03;1.50;;;14.80;99.90;;;;;;5067815;28;20397;-81
2023/05/31 01:20:15;;;;;;;4.55;1.33;;;14.90;99.90;;;;;;5060304;28;20037;-82
2023/05/31 01:23:06;;;;;;;4.55;1.50;;;14.70;99.90;;;;;;5050394;28;20044;-81
2023/05/31 01:25:35;;;;;;;;;;;14.60;99.90;;;;;;5050835;28;20048;-81
2023/05/31 01:28:10;;;;;;;6.03;1.88;;;14.50;99.90;;;;;;5030832;28;19912;-81
2023/05/31 01:30:38;;;;;;;5.13;1.75;;;14.40;99.90;;;;;;5064412;28;20036;-81
2023/05/31 01:33:10;;;;;;;5.68;2.33;;;14.30;99.90;;;;;;5033579;28;20048;-81
2023/05/31 01:35:36;;;;;;;6.88;2.08;;;14.20;99.90;;;;;;5052909;28;20045;-82
2023/05/31 01:38:02;;;;;;;9.73;1.38;;;14.10;99.90;;;;;;5047939;28;20367;-81
2023/05/31 01:40:29;;;;;;;3.58;1.40;;;14.10;99.90;;;;;;5051112;28;20057;-81
2023/05/31 01:42:57;;;;;;;5.10;1.90;;;14.00;99.90;;;;;;5065649;28;20048;-81
2023/05/31 01:45:26;;;;;;;3.05;1.40;;;14.00;99.90;;;;;;5085443;28;20040;-81
2023/05/31 01:47:56;;;;;;;5.65;1.63;;;14.00;99.90;;;;;;5091072;28;20039;-81
2023/05/31 01:50:23;;;;;;;5.82;1.48;;;13.90;99.90;;;;;;5088608;28;20047;-80
2023/05/31 01:52:50;;;;;;;5.13;2.30;;;13.90;99.90;;;;;;5086944;28;20044;-81
2023/05/31 01:55:17;;;;;;;6.72;1.40;;;13.90;99.90;;;;;;5086380;28;20480;-80
2023/05/31 01:57:45;;;;;;;3.40;1.40;;;13.90;99.90;;;;;;5075251;28;20043;-81
2023/05/31 02:00:12;;;;;;;6.72;1.70;;;13.80;99.90;;;;;;5085602;28;20044;-81
2023/05/31 02:02:42;;;;;;;5.18;1.65;;;13.80;99.90;;;;;;5089527;28;20043;-81
2023/05/31 02:05:11;;;;;;;7.57;1.80;;;13.80;99.90;;;;;;5089498;28;20394;-81
2023/05/31 02:07:37;;;;;;;7.00;1.50;;;13.80;99.90;;;;;;5085497;28;20524;-81
2023/05/31 02:10:05;;;;;;;6.63;1.70;;;13.70;99.90;;;;;;5085952;28;20032;-81
2023/05/31 02:12:35;;;;;;;4.55;1.58;;;13.60;99.90;;;;;;5087449;28;20043;-80
2023/05/31 02:15:02;;;;;;;4.80;1.52;;;13.40;99.90;;;;;;5084884;28;20051;-82
2023/05/31 02:17:28;;;;;;;4.10;1.52;;;13.40;99.90;;;;;;5085162;28;20041;-80
2023/05/31 02:19:56;;;;;;;6.57;1.83;;;13.30;99.90;;;;;;5073357;28;20043;-80
2023/05/31 02:22:22;;;;;;;3.45;1.67;;;13.30;99.90;;;;;;5086366;28;20047;-80
2023/05/31 02:24:48;;;;;;;7.03;1.88;;;13.30;99.90;;;;;;5083226;28;20037;-80
2023/05/31 02:27:15;;;;;;;9.02;1.98;;;13.10;99.90;;;;;;5083536;28;20050;-81
2023/05/31 02:29:41;;;;;;;4.47;1.55;;;12.90;99.90;;;;;;5085902;28;20052;-80
2023/05/31 02:32:07;;;;;;;4.47;1.58;;;12.70;99.90;;;;;;5079154;28;20055;-81
2023/05/31 02:34:33;;;;;;;4.97;2.00;;;12.60;99.90;;;;;;5084069;28;20047;-80
2023/05/31 02:37:00;;;;;;;6.80;1.70;;;12.40;99.90;;;;;;5084946;28;20036;-82
2023/05/31 02:39:27;;;;;;;3.88;1.77;;;12.40;99.90;;;;;;5067482;28;20512;-80
2023/05/31 02:41:53;;;;;;;4.07;1.83;;;12.30;99.90;;;;;;5083789;28;20044;-80
2023/05/31 02:44:20;;;;;;;3.72;1.80;;;12.30;99.90;;;;;;5085919;28;20488;-80
2023/05/31 02:46:48;;;;;;;3.30;1.42;;;12.30;99.90;;;;;;5085372;28;20047;-80
2023/05/31 02:49:14;;;;;;;5.07;1.67;;;12.10;99.90;;;;;;5087059;28;20066;-81
2023/05/31 02:51:43;;;;;;;7.28;1.85;;;12.10;99.90;;;;;;5083944;28;20040;-80
2023/05/31 02:54:15;;;;;;;4.65;1.60;;;12.00;1.00;;;;;;5087887;28;20059;-80
2023/05/31 02:56:41;;;;;;;3.45;1.60;;;11.80;99.90;;;;;;5068707;28;20051;-80
2023/05/31 02:59:17;;;;;;;4.05;1.63;;;11.80;99.90;;;;;;5069558;28;20482;-81
2023/05/31 03:01:43;;;;;;;6.93;2.17;;;11.90;99.90;;;;;;5100828;28;20032;-80
2023/05/31 03:04:32;;;;;;;4.05;1.90;;;12.00;99.90;;;;;;5096628;28;20046;-81
2023/05/31 03:06:59;;;;;;;4.80;1.50;;;12.00;99.90;;;;;;5087385;28;20051;-80
2023/05/31 03:09:28;;;;;;;6.28;1.85;;;11.90;99.90;;;;;;5089351;28;20044;-80
2023/05/31 03:11:55;;;;;;;5.90;1.73;;;11.90;99.90;;;;;;5067473;28;20389;-80
2023/05/31 03:14:22;;;;;;;3.92;2.10;;;11.90;99.90;;;;;;5087087;28;20084;-80
2023/05/31 03:16:52;;;;;;;3.88;1.58;;;11.80;99.90;;;;;;5067973;28;20042;-80
2023/05/31 03:19:19;;;;;;;4.10;1.90;;;11.80;1.00;;;;;;5087382;28;20397;-80
2023/05/31 03:21:49;;;;;;;6.10;1.73;;;11.80;1.00;;;;;;5067532;28;20051;-80
2023/05/31 03:24:15;;;;;;;6.88;1.88;;;11.70;1.00;;;;;;5066548;28;20039;-81
2023/05/31 03:26:42;;;;;;;5.03;2.30;;;11.80;1.00;;;;;;5065115;28;20040;-80
2023/05/31 03:29:08;;;;;;;5.75;1.35;;;11.80;1.00;;;;;;5073634;28;20063;-81
2023/05/31 03:31:35;;;;;;;5.47;1.60;;;11.70;1.00;;;;;;5065400;28;20059;-80
2023/05/31 03:34:02;;;;;;;3.90;1.80;;;11.70;1.00;;;;;;5089826;28;20046;-80
2023/05/31 03:36:28;;;;;;;4.15;1.73;;;11.70;1.00;;;;;;5067555;28;20048;-80
2023/05/31 03:38:55;;;;;;;5.22;1.90;;;11.60;1.00;;;;;;5068624;28;20044;-80
2023/05/31 03:41:21;;;;;;;4.55;1.63;;;11.60;1.00;;;;;;5082348;28;20041;-80
2023/05/31 03:43:50;;;;;;;4.00;1.40;;;11.60;1.00;;;;;;5073093;28;20056;-81
2023/05/31 03:46:17;;;;;;;5.55;1.73;;;11.60;1.00;;;;;;5083475;28;20045;-80
2023/05/31 03:48:43;;;;;;;5.88;1.80;;;11.70;1.00;;;;;;5088040;28;20052;-80
2023/05/31 03:51:10;;;;;;;8.63;2.55;;;11.70;1.00;;;;;;5077525;28;20044;-80
2023/05/31 03:53:36;;;;;;;6.20;2.35;;;11.60;1.00;;;;;;5080185;28;20044;-80
2023/05/31 03:56:02;;;;;;;12.05;3.47;;;11.60;1.00;;;;;;5073776;28;20048;-80
2023/05/31 03:58:28;;;;;;;6.32;2.78;;;11.60;1.00;;;;;;5084368;28;20043;-80
2023/05/31 04:00:56;;;;;;;4.85;2.22;;;11.60;1.00;;;;;;5087808;28;20036;-79
2023/05/31 04:03:23;;;;;;;5.30;2.72;;;11.70;1.00;;;;;;5067381;28;20051;-77
2023/05/31 04:05:50;;;;;;;6.25;1.70;;;11.80;1.00;;;;;;5089151;28;20043;-78
2023/05/31 04:08:17;;;;;;;6.65;1.70;;;11.80;1.00;;;;;;5066422;28;20480;-79
2023/05/31 04:10:45;;;;;;;7.63;2.38;;;11.90;1.00;;;;;;5080902;28;20055;-79
2023/05/31 04:13:11;;;;;;;9.68;2.70;;;11.90;1.00;;;;;;5066954;28;20059;-79
2023/05/31 04:15:38;;;;;;;9.57;2.05;;;12.00;1.00;;;;;;5070009;28;20044;-79
2023/05/31 04:18:04;;;;;;;8.80;3.05;;;12.00;1.00;;;;;;5083442;28;20043;-79
2023/05/31 04:20:31;;;;;;;7.53;2.28;;;12.10;1.00;;;;;;5087867;28;20044;-78
2023/05/31 04:22:58;;;;;;;10.25;2.90;;;12.50;1.00;;;;;;5065730;28;20044;-78
2023/05/31 04:25:27;;;;;;;9.10;2.83;;;13.30;99.90;;;;;;5087846;28;20067;-78
2023/05/31 04:27:54;;;;;;;5.28;1.95;;;13.70;99.90;;;;;;5094410;28;20041;-79
2023/05/31 04:30:23;;;;;;;6.57;2.08;;;13.90;99.90;;;;;;5083626;28;20055;-77
2023/05/31 04:32:52;;;;;;;5.82;1.90;;;14.10;99.90;;;;;;5087011;28;20403;-78
2023/05/31 04:35:18;;;;;;;6.85;1.83;;;14.80;99.90;;;;;;5083567;28;20048;-78
2023/05/31 04:37:51;;;;;;;6.32;2.22;;;15.30;99.90;;;;;;5082297;28;20045;-76
2023/05/31 04:40:19;;;;;;;6.03;1.88;;;15.70;99.90;;;;;;5078882;28;20389;-78
2023/05/31 04:42:46;;;;;;;7.38;2.42;;;15.50;99.90;;;;;;5085630;28;20052;-75
2023/05/31 04:45:23;;;;;;;9.25;2.10;;;15.70;99.90;;;;;;5088985;28;20048;-75
2023/05/31 04:47:51;;;;;;;3.83;1.50;;;16.10;99.90;;;;;;5082238;28;20037;-76
2023/05/31 04:50:19;;;;;;;6.65;1.92;;;16.30;99.90;;;;;;5067878;28;20052;-77
2023/05/31 04:52:46;;;;;;;3.75;2.38;;;16.10;99.90;;;;;;5086342;28;20382;-76
2023/05/31 04:55:13;;;;;;;3.80;1.67;;;15.90;99.90;;;;;;5085633;28;20032;-76
2023/05/31 04:57:39;;;;;;;7.45;2.35;;;16.20;99.90;;;;;;5084672;28;20040;-76
2023/05/31 05:00:10;;;;;;;5.63;2.22;;;16.20;99.90;;;;;;5082533;28;20055;-79
2023/05/31 05:02:43;;;;;;;12.85;2.45;;;16.30;99.90;;;;;;5068777;28;20500;-76
2023/05/31 05:05:09;;;;;;;5.28;1.52;;;16.50;99.90;;;;;;5085972;28;20084;-79
2023/05/31 05:07:36;;;;;;;5.40;1.90;;;16.50;99.90;;;;;;5090083;28;20043;-76
2023/05/31 05:10:03;;;;;;;4.57;1.83;;;16.50;99.90;;;;;;5089450;28;20052;-76
2023/05/31 05:12:30;;;;;;;7.90;2.53;;;16.40;99.90;;;;;;5081826;28;20040;-75
2023/05/31 05:14:57;;;;;;;11.07;2.55;;;16.10;99.90;;;;;;5087687;28;20048;-75
2023/05/31 05:17:23;;;;;;;7.95;2.50;;;16.30;99.90;;;;;;5086703;28;20058;-76
2023/05/31 05:19:50;;;;;;;6.53;2.30;;;16.70;99.90;;;;;;5092379;28;20373;-75
2023/05/31 05:22:16;;;;;;;5.43;2.10;;;16.50;99.90;;;;;;5095858;28;20047;-76
2023/05/31 05:24:43;;;;;;;6.82;2.20;;;16.50;99.90;;;;;;5084268;28;20036;-76
2023/05/31 05:27:10;;;;;;;5.90;1.73;;;16.30;99.90;;;;;;5085172;28;20442;-78
2023/05/31 05:29:38;;;;;;;5.90;1.90;;;16.40;99.90;;;;;;5071567;28;20048;-76
2023/05/31 05:32:04;;;;;;;8.48;2.67;;;16.20;99.90;;;;;;5084416;28;20055;-75
2023/05/31 05:34:31;;;;;;;6.47;2.00;;;16.20;99.90;;;;;;5074513;28;20087;-77
2023/05/31 05:36:57;;;;;;;13.07;2.50;;;16.10;99.90;;;;;;5085320;28;20037;-76
2023/05/31 05:39:24;;;;;;;7.82;2.58;;;16.40;99.90;;;;;;5095072;28;20055;-76
2023/05/31 05:41:50;;;;;;;6.32;1.85;;;16.80;99.90;;;;;;5083414;28;20048;-78
2023/05/31 05:44:16;;;;;;;6.10;1.70;;;16.70;99.90;;;;;;5079088;28;20055;-81
2023/05/31 05:46:43;;;;;;;7.75;2.65;;;17.00;99.90;;;;;;5066157;28;20484;-76
2023/05/31 05:49:11;;;;;;;6.18;2.13;;;16.90;99.90;;;;;;5092072;28;20048;-79
2023/05/31 05:51:37;;;;;;;7.07;1.65;;;17.10;99.90;;;;;;5088466;28;20044;-76
2023/05/31 05:54:07;;;;;;;6.28;1.83;;;17.40;99.90;;;;;;5086418;28;20036;-76
2023/05/31 05:56:35;;;;;;;8.25;1.77;;;17.70;99.90;;;;;;5085235;28;20036;-76
2023/05/31 05:59:01;;;;;;;4.70;1.48;;;18.10;99.90;;;;;;5091110;28;20055;-77
2023/05/31 06:01:47;;;;;;;6.60;2.10;;;18.30;99.90;;;;;;5092352;28;20040;-76
2023/05/31 06:04:16;;;;;;;5.03;1.50;;;18.30;99.90;;;;;;5086315;28;20094;-77
2023/05/31 06:06:44;;;;;;;4.60;1.40;;;19.00;99.90;;;;;;5085736;28;20489;-76
2023/05/31 06:09:10;;;;;;;8.13;1.80;;;19.90;99.90;;;;;;5089409;28;20074;-80
2023/05/31 06:11:37;;;;;;;4.00;1.42;;;20.30;99.90;;;;;;5084931;28;20036;-76
2023/05/31 06:14:03;;;;;;;4.07;1.27;;;20.00;99.90;;;;;;5088931;28;20040;-75
2023/05/31 06:16:37;;;;;;;4.03;1.38;;;20.40;99.90;;;;;;5083460;28;20047;-80
2023/05/31 06:19:03;;;;;;;4.32;1.40;;;20.60;99.90;;;;;;5083251;28;20135;-76
2023/05/31 06:21:29;;;;;;;8.10;1.80;;;20.30;99.90;;;;;;5066032;28;20571;-76
2023/05/31 06:23:56;;;;;;;6.03;1.77;;;20.60;99.90;;;;;;5084290;28;20036;-77
2023/05/31 06:26:23;;;;;;;3.45;1.75;;;20.30;99.90;;;;;;5088815;28;20039;-76
2023/05/31 06:28:50;;;;;;;5.05;1.23;;;20.70;99.90;;;;;;5085874;28;20040;-77
2023/05/31 06:31:39;;;;;;;6.20;1.58;;;20.80;99.90;;;;;;5088119;28;20044;-76
2023/05/31 06:34:06;;;;;;;3.00;1.27;;;21.20;99.90;;;;;;5089432;28;20477;-78
2023/05/31 06:36:32;;;;;;;7.78;1.45;;;21.00;99.90;;;;;;5089237;28;20634;-76
2023/05/31 06:38:58;;;;;;;5.35;1.70;;;21.20;99.90;;;;;;5085042;28;20067;-77
2023/05/31 06:41:26;;;;;;;3.03;1.30;;;21.10;99.90;;;;;;5088186;28;20055;-76
2023/05/31 06:43:52;;;;;;;4.43;1.80;;;20.80;99.90;;;;;;5086007;28;20047;-76
2023/05/31 06:46:40;;;;;;;6.15;1.85;;;21.10;99.90;;;;;;5090668;28;20063;-76
2023/05/31 06:49:24;;;;;;;4.70;1.50;;;21.50;99.90;;;;;;5079183;28;20055;-77
2023/05/31 06:51:51;;;;;;;7.88;2.05;;;21.20;99.90;;;;;;5083996;28;20385;-79
2023/05/31 06:54:29;;;;;;;6.80;1.58;;;21.40;99.90;;;;;;5088183;28;20036;-78
2023/05/31 06:56:57;;;;;;;4.93;1.70;;;21.80;99.90;;;;;;5085183;28;20039;-79
2023/05/31 06:59:23;;;;;;;4.78;1.77;;;22.10;99.90;;;;;;5082829;28;20469;-79
2023/05/31 07:01:52;;;;;;;7.18;1.33;;;22.10;99.90;;;;;;5092911;28;20036;-78
2023/05/31 07:04:18;;;;;;;4.75;1.88;;;22.10;99.90;;;;;;5085002;28;20051;-77
2023/05/31 07:06:44;;;;;;;5.85;1.50;;;22.00;98.40;;;;;;5090086;28;20051;-78
2023/05/31 07:09:11;;;;;;;7.18;1.58;;;22.00;99.30;;;;;;5088164;28;20077;-91
2023/05/31 07:11:44;;;;;;;6.55;1.55;;;22.00;98.90;;;;;;5089888;28;20405;-77
2023/05/31 07:14:11;;;;;;;4.45;1.27;;;22.10;98.60;;;;;;5082122;28;20048;-81
2023/05/31 07:16:37;;;;;;;6.00;1.50;;;22.50;94.70;;;;;;5076506;28;20048;-79
2023/05/31 07:19:03;;;;;;;3.70;1.85;;;22.50;93.50;;;;;;5081480;28;20035;-79
2023/05/31 07:21:30;;;;;;;5.65;1.42;;;22.50;93.30;;;;;;5085739;28;20028;-80
2023/05/31 07:23:56;;;;;;;1.92;0.90;;;22.50;94.70;;;;;;5084334;28;20036;-77
2023/05/31 07:26:23;;;;;;;3.67;1.30;;;22.70;92.30;;;;;;5086902;28;20055;-79
2023/05/31 07:28:52;;;;;;;3.80;1.17;;;22.80;88.60;;;;;;5083452;28;20031;-80
2023/05/31 07:31:20;;;;;;;6.10;2.33;;;22.80;90.30;;;;;;5080512;28;20059;-81
2023/05/31 07:33:46;;;;;;;6.78;1.80;;;23.30;79.00;;;;;;5082761;28;20028;-77
2023/05/31 07:36:13;;;;;;;5.63;1.52;;;23.00;77.20;;;;;;5084826;28;20027;-81
2023/05/31 07:38:39;;;;;;;3.30;1.30;;;23.20;84.50;;;;;;5086875;28;20036;-77
2023/05/31 07:41:05;;;;;;;2.80;1.13;;;23.00;75.00;;;;;;5078274;28;20055;-79
2023/05/31 07:43:32;;;;;;;4.15;1.50;;;22.70;79.50;;;;;;5064756;28;20037;-80
2023/05/31 07:45:58;;;;;;;3.67;1.73;;;22.60;91.50;;;;;;5046983;28;20040;-81
2023/05/31 07:48:25;;;;;;;6.15;1.25;;;23.30;69.00;;;;;;5049071;28;20470;-75
2023/05/31 07:50:51;;;;;;;3.72;1.63;;;23.30;61.90;;;;;;5064150;28;20040;-78
2023/05/31 07:53:18;;;;;;;4.15;2.42;;;23.20;71.20;;;;;;5051930;28;20035;-81
2023/05/31 07:55:44;;;;;;;5.28;1.40;;;23.50;58.10;;;;;;5046871;28;20044;-78
2023/05/31 07:58:11;;;;;;;4.05;1.50;;;23.10;60.00;;;;;;5035223;28;20434;-80
2023/05/31 08:00:38;;;;;;;3.20;1.45;;;23.20;60.10;;;;;;5059465;28;20033;-79
2023/05/31 08:03:05;;;;;;;3.15;1.52;;;23.50;59.20;;;;;;5067084;28;20088;-77
2023/05/31 08:05:31;;;;;;;3.50;1.20;;;23.70;49.10;;;;;;5063013;28;20036;-79
2023/05/31 08:07:59;;;;;;;2.65;1.13;;;23.90;57.40;;;;;;5047873;28;20024;-79
2023/05/31 08:10:25;;;;;;;4.13;1.42;;;24.40;50.60;;;;;;5041199;28;20048;-79
2023/05/31 08:12:51;;;;;;;5.25;1.50;;;24.90;40.90;;;;;;5071493;28;20036;-79
2023/05/31 08:15:18;;;;;;;2.25;1.48;;;24.80;43.00;;;;;;5060979;28;20045;-78
2023/05/31 08:17:44;;;;;;;2.08;1.33;;;24.70;48.30;;;;;;5066233;28;20032;-79
2023/05/31 08:20:12;;;;;;;3.28;1.30;;;25.00;42.60;;;;;;5067734;28;20036;-81
2023/05/31 08:22:38;;;;;;;4.15;1.30;;;25.10;41.20;;;;;;5033694;28;20497;-79
2023/05/31 08:25:05;;;;;;;3.15;1.23;;;25.10;37.80;;;;;;5067063;28;20028;-79
2023/05/31 08:27:31;;;;;;;3.90;1.60;;;24.90;36.30;;;;;;5035212;28;20045;-79
2023/05/31 08:29:57;;;;;;;5.53;1.67;;;24.60;38.60;;;;;;5038285;28;20043;-80
2023/05/31 08:32:23;;;;;;;4.20;1.65;;;24.30;45.30;;;;;;5062287;28;20048;-78
2023/05/31 08:34:49;;;;;;;4.90;1.65;;;24.50;40.00;;;;;;5065151;28;20493;-77
2023/05/31 08:37:16;;;;;;;3.40;1.35;;;24.40;41.90;;;;;;5052775;28;20041;-80
2023/05/31 08:39:42;;;;;;;7.43;1.10;;;23.80;41.60;;;;;;5041246;28;20048;-79
2023/05/31 08:42:16;;;;;;;6.40;1.75;;;24.00;39.60;;;;;;5068981;28;20045;-77
2023/05/31 08:44:43;;;;;;;2.90;1.20;;;23.90;35.70;;;;;;5071290;28;20568;-81
2023/05/31 08:47:19;;;;;;;4.43;2.08;;;25.20;34.40;;;;;;5067446;28;20470;-83
2023/05/31 08:49:46;;;;;;;2.97;1.67;;;25.50;27.20;;;;;;5048541;28;20101;-81
2023/05/31 08:52:12;;;;;;;7.75;1.88;;;25.20;27.60;;;;;;5058821;28;20024;-82
2023/05/31 08:54:40;;;;;;;4.45;1.48;;;25.50;27.50;;;;;;5054066;28;20374;-81
2023/05/31 08:57:06;;;;;;;3.08;1.50;;;25.90;23.60;;;;;;5050355;28;20505;-80
2023/05/31 08:59:36;;;;;;;4.93;1.40;;;25.10;27.60;;;;;;5070713;28;20139;-82
2023/05/31 09:02:02;;;;;;;;;;;25.40;24.70;;;;;;5061842;28;20043;-82
2023/05/31 09:04:29;;;;;;;2.83;1.70;;;25.20;25.50;;;;;;5058606;28;19908;-87
2023/05/31 09:06:55;;;;;;;6.13;1.80;;;25.50;28.00;;;;;;5048728;28;20040;-77
2023/05/31 09:09:21;;;;;;;3.25;1.17;;;25.60;22.60;;;;;;5072130;28;20031;-78
2023/05/31 09:11:47;;;;;;;4.38;1.58;;;26.00;22.20;;;;;;5053106;28;20045;-80
2023/05/31 09:14:14;;;;;;;3.10;1.40;;;26.80;18.70;;;;;;5072085;28;20036;-79
2023/05/31 09:16:41;;;;;;;3.90;1.23;;;27.20;19.60;;;;;;5065460;28;20048;-77
2023/05/31 09:19:07;;;;;;;3.28;1.45;;;26.50;18.70;;;;;;5066604;28;20037;-80
2023/05/31 09:21:44;;;;;;;7.32;1.90;;;25.40;24.30;;;;;;5053881;28;20040;-79
2023/05/31 09:24:13;;;;;;;2.80;1.13;;;25.60;25.00;;;;;;5067086;28;20375;-80
2023/05/31 09:27:06;;;;;;;5.55;1.35;;;25.60;22.10;;;;;;5064884;28;20036;-79
2023/05/31 09:29:32;;;;;;;5.55;1.75;;;25.60;21.20;;;;;;5064471;28;20044;-78
2023/05/31 09:32:09;;;;;;;4.00;1.30;;;25.80;23.60;;;;;;5067315;28;20040;-79
2023/05/31 09:34:35;;;;;;;4.30;1.30;;;25.30;23.90;;;;;;5049734;28;20040;-77
2023/05/31 09:37:03;;;;;;;6.43;1.90;;;24.80;30.20;;;;;;5062753;28;20028;-81
2023/05/31 09:39:31;;;;;;;5.57;1.55;;;25.60;24.30;;;;;;5047816;28;20343;-78
2023/05/31 09:41:58;;;;;;;4.43;1.52;;;26.20;23.70;;;;;;5071075;28;20043;-76
2023/05/31 09:44:28;;;;;;;4.40;1.25;;;25.40;24.20;;;;;;5081869;28;20039;-77
2023/05/31 09:46:55;;;;;;;3.78;2.17;;;25.80;23.30;;;;;;5088127;28;20370;-79
2023/05/31 09:49:21;;;;;;;6.95;1.40;;;26.10;21.90;;;;;;5084662;28;20469;-79
2023/05/31 09:51:52;;;;;;;5.00;1.40;;;25.90;23.00;;;;;;5088106;28;20111;-79
2023/05/31 09:54:22;;;;;;;4.40;1.45;;;26.50;20.10;;;;;;5082135;28;20484;-76
2023/05/31 09:56:48;;;;;;;2.33;1.20;;;26.40;21.70;;;;;;5094259;28;20048;-79
2023/05/31 09:59:17;;;;;;;5.63;1.60;;;25.80;24.70;;;;;;5087503;28;20036;-82
2023/05/31 10:01:44;;;;;;;3.22;1.65;;;26.20;23.50;;;;;;5085215;28;20483;-79
2023/05/31 10:04:12;;;;;;;4.22;1.63;;;25.70;22.90;;;;;;5089677;28;20028;-76
2023/05/31 10:06:38;;;;;;;4.38;1.40;;;25.20;25.50;;;;;;5087033;28;20351;-77
2023/05/31 10:09:06;;;;;;;5.07;1.40;;;24.80;25.20;;;;;;5088731;28;20032;-77
2023/05/31 10:11:36;;;;;;;2.40;1.23;;;25.20;24.80;;;;;;5087742;28;20048;-78
2023/05/31 10:14:25;;;;;;;3.92;1.88;;;25.30;21.30;;;;;;5093525;28;20052;-77
2023/05/31 10:16:56;;;;;;;7.15;1.58;;;25.30;22.80;;;;;;5102955;28;20059;-76
2023/05/31 10:19:47;;;;;;;2.25;1.08;;;25.00;24.90;;;;;;5087038;28;20469;-78
2023/05/31 10:22:17;;;;;;;8.48;1.73;;;24.30;24.80;;;;;;5079612;28;20040;-76
2023/05/31 10:24:55;;;;;;;4.40;1.20;;;24.30;27.20;;;;;;5086985;28;20047;-76
2023/05/31 10:27:38;;;;;;;2.58;1.27;;;24.20;24.70;;;;;;5080393;28;20055;-80
2023/05/31 10:30:05;;;;;;;2.55;1.10;;;24.30;25.00;;;;;;5083894;28;20040;-77
2023/05/31 10:32:46;;;;;;;5.63;1.52;;;24.30;24.60;;;;;;5083351;28;20457;-76
2023/05/31 10:35:13;;;;;;;4.00;1.30;;;24.20;25.30;;;;;;5087751;28;20032;-79
2023/05/31 10:37:43;;;;;;;3.15;1.50;;;24.20;27.40;;;;;;5084094;28;20028;-79
2023/05/31 10:40:18;;;;;;;;;;;24.20;26.80;;;;;;5081430;28;20033;-74
2023/05/31 10:43:02;;;;;;;7.15;1.63;;;24.50;17.60;;;;;;5069493;28;19917;-75
2023/05/31 10:45:37;;;;;;;3.08;0.93;;;24.60;22.40;;;;;;5067135;28;20040;-79
2023/05/31 10:48:22;;;;;;;2.25;1.00;;;24.30;22.90;;;;;;5066784;28;20036;-76
2023/05/31 10:51:01;;;;;;;3.28;1.45;;;24.40;26.10;;;;;;5046038;28;20048;-76
2023/05/31 10:53:38;;;;;;;8.37;1.50;;;24.30;26.80;;;;;;5066772;28;20055;-77
2023/05/31 10:56:09;;;;;;;5.03;1.50;;;24.30;27.90;;;;;;5066466;28;20041;-78
2023/05/31 10:58:42;;;;;;;6.30;1.67;;;24.40;28.10;;;;;;5065466;28;20037;-75
2023/05/31 11:01:13;;;;;;;3.45;1.35;;;24.70;26.90;;;;;;5064403;28;20096;-79
2023/05/31 11:03:46;;;;;;;4.70;1.40;;;24.80;27.10;;;;;;5065093;28;20029;-75
2023/05/31 11:06:14;;;;;;;4.53;1.90;;;24.60;27.40;;;;;;5064903;28;20040;-79
2023/05/31 11:09:16;;;;;;;3.22;1.33;;;24.30;27.20;;;;;;5059821;28;20029;-77
2023/05/31 11:11:46;;;;;;;6.40;1.60;;;24.40;27.70;;;;;;4989305;28;20499;-78
2023/05/31 11:14:28;;;;;;;5.63;1.33;;;24.50;24.90;;;;;;5049592;28;20478;-79
2023/05/31 11:16:56;;;;;;;3.47;1.30;;;24.50;24.20;;;;;;5065668;28;20371;-83
2023/05/31 11:19:28;;;;;;;4.55;1.40;;;24.50;22.40;;;;;;5046039;28;20039;-79
2023/05/31 11:21:55;;;;;;;8.23;2.25;;;24.60;22.10;;;;;;5065421;28;20063;-78
2023/05/31 11:24:33;;;;;;;5.30;1.33;;;24.40;23.10;;;;;;5045415;28;20033;-77
2023/05/31 11:27:05;;;;;;;3.33;1.05;;;24.30;25.10;;;;;;5069519;28;20378;-78
2023/05/31 11:29:52;;;;;;;3.20;0.77;;;24.60;25.30;;;;;;5067383;28;20035;-78
2023/05/31 11:32:41;;;;;;;5.97;1.67;;;24.40;23.40;;;;;;5048615;28;20044;-78
2023/05/31 11:35:14;;;;;;;2.58;1.00;;;24.60;25.10;;;;;;5056703;28;20045;-78
2023/05/31 11:37:44;;;;;;;5.13;1.75;;;24.80;21.80;;;;;;5047394;28;20044;-77
2023/05/31 11:40:15;;;;;;;3.28;1.13;;;24.70;22.70;;;;;;5063991;28;20044;-78
2023/05/31 11:42:43;;;;;;;4.00;1.45;;;24.70;20.30;;;;;;5060441;28;20089;-77
2023/05/31 11:45:10;;;;;;;4.53;1.20;;;24.60;19.60;;;;;;5064288;28;20041;-78
2023/05/31 11:47:48;;;;;;;4.00;1.40;;;24.90;20.20;;;;;;5063221;28;20029;-78
2023/05/31 11:50:18;;;;;;;4.68;1.35;;;24.80;21.10;;;;;;5046930;28;20052;-77
2023/05/31 11:52:45;;;;;;;4.05;1.05;;;25.10;20.60;;;;;;5032053;28;20397;-78
2023/05/31 11:55:16;;;;;;;1.95;0.93;;;24.60;17.40;;;;;;5070731;28;20035;-78
2023/05/31 11:57:44;;;;;;;3.50;1.38;;;24.60;20.00;;;;;;5058824;28;20496;-77
2023/05/31 12:00:12;;;;;;;6.65;1.08;;;24.90;19.60;;;;;;5065898;28;20025;-79
2023/05/31 12:02:42;;;;;;;4.38;1.15;;;24.60;17.30;;;;;;5044122;28;20601;-77
2023/05/31 12:05:15;;;;;;;3.42;1.17;;;24.60;16.90;;;;;;5048484;28;20040;-79
2023/05/31 12:07:42;;;;;;;2.47;1.00;;;24.80;18.80;;;;;;5065764;28;20525;-81
2023/05/31 12:10:09;;;;;;;2.05;0.90;;;24.90;17.30;;;;;;5064188;28;20028;-77
2023/05/31 12:12:37;;;;;;;4.53;1.23;;;25.10;16.20;;;;;;5065350;28;20029;-78
2023/05/31 12:15:17;;;;;;;4.03;1.20;;;25.20;15.60;;;;;;5046999;28;20062;-80
2023/05/31 12:17:46;;;;;;;1.85;0.80;;;25.20;14.40;;;;;;5049701;28;20364;-78
2023/05/31 12:20:12;;;;;;;3.00;1.20;;;25.40;15.20;;;;;;5062797;28;20029;-77
2023/05/31 12:22:41;;;;;;;3.80;0.98;;;25.30;13.10;;;;;;5064200;28;20031;-78
2023/05/31 12:25:08;;;;;;;5.45;0.93;;;25.20;11.70;;;;;;5046114;28;20040;-77
2023/05/31 12:27:34;;;;;;;6.90;1.45;;;25.10;12.50;;;;;;5061654;28;20037;-78
2023/05/31 12:30:01;;;;;;;2.90;1.15;;;25.20;13.10;;;;;;5063199;28;20039;-80
2023/05/31 12:32:28;;;;;;;2.22;1.10;;;25.40;11.90;;;;;;5062683;28;20041;-78
2023/05/31 12:35:12;;;;;;;2.92;0.90;;;25.20;15.70;;;;;;5044029;28;20047;-79
2023/05/31 12:37:39;;;;;;;4.75;1.33;;;25.50;12.00;;;;;;5058517;28;20032;-79
2023/05/31 12:40:13;;;;;;;5.28;1.20;;;25.30;10.50;;;;;;5047244;28;20037;-78
2023/05/31 12:42:40;;;;;;;3.63;1.30;;;25.70;12.10;;;;;;5078869;28;20051;-77
2023/05/31 12:45:07;;;;;;;3.67;1.05;;;25.60;11.30;;;;;;5081842;28;20040;-82
2023/05/31 12:47:35;;;;;;;2.08;1.15;;;25.60;9.50;;;;;;5085181;28;20063;-79
2023/05/31 12:50:06;;;;;;;4.30;1.30;;;25.60;9.00;;;;;;5076985;28;20051;-78
2023/05/31 12:52:40;;;;;;;2.58;1.45;;;25.60;8.70;;;;;;5085679;28;20040;-81
2023/05/31 12:55:07;;;;;;;3.08;1.00;;;25.70;9.20;;;;;;5083867;28;20036;-79
2023/05/31 12:57:37;;;;;;;3.72;1.30;;;25.70;8.50;;;;;;5082832;28;20049;-80